SHU2844 UHWW-UHSS
Flight info
| Callsign | SHU2844 |
|---|---|
| Flight time | 1h 24m |
| Altitude | 35000 |
| Route | DOLMA2F DOLMA B356 LUBOK W209 RUNUK R810 TIMIT B919 KENOM KENOM6 |
| Aircraft | A319/M-SDE3FGHIRWY/LB1 |
Departure
| Time | 2026-05-06 18:21 |
|---|---|
| Airport | Vladivostok International Airport (UHWW) |
Arrival
| Time | 2026-05-06 19:45 |
|---|---|
| Airport | Yuzhno-Sakhalinsk International Airport (UHSS) |
| Time | Latitude | Longitude | Altitude | Speed | Heading |
|---|---|---|---|---|---|
| 2026-05-06 17:51 | 43.39903 | 132.16487 | 48 ft | 0 kts | 151° |
| 2026-05-06 18:11 | 43.39898 | 132.16490 | 48 ft | 2 kts | 151° |
| 2026-05-06 18:11 | 43.39866 | 132.16513 | 48 ft | 6 kts | 168° |
| 2026-05-06 18:11 | 43.39831 | 132.16481 | 49 ft | 7 kts | 238° |
| 2026-05-06 18:11 | 43.39803 | 132.16414 | 52 ft | 8 kts | 240° |
| 2026-05-06 18:12 | 43.39777 | 132.16348 | 54 ft | 7 kts | 242° |
| 2026-05-06 18:12 | 43.39755 | 132.16290 | 56 ft | 6 kts | 242° |
| 2026-05-06 18:12 | 43.39746 | 132.16226 | 58 ft | 9 kts | 295° |
| 2026-05-06 18:12 | 43.39809 | 132.16170 | 56 ft | 12 kts | 332° |
| 2026-05-06 18:13 | 43.39887 | 132.16104 | 54 ft | 12 kts | 300° |
| 2026-05-06 18:13 | 43.39864 | 132.15984 | 55 ft | 15 kts | 241° |
| 2026-05-06 18:13 | 43.39806 | 132.15839 | 59 ft | 18 kts | 240° |
| 2026-05-06 18:13 | 43.39737 | 132.15666 | 61 ft | 21 kts | 242° |
| 2026-05-06 18:14 | 43.39669 | 132.15482 | 62 ft | 21 kts | 245° |
| 2026-05-06 18:14 | 43.39592 | 132.15308 | 60 ft | 16 kts | 240° |
| 2026-05-06 18:14 | 43.39558 | 132.15225 | 59 ft | 10 kts | 240° |
| 2026-05-06 18:14 | 43.39518 | 132.15126 | 58 ft | 12 kts | 241° |
| 2026-05-06 18:15 | 43.39472 | 132.15008 | 57 ft | 14 kts | 241° |
| 2026-05-06 18:15 | 43.39418 | 132.14883 | 56 ft | 16 kts | 239° |
| 2026-05-06 18:15 | 43.39360 | 132.14734 | 53 ft | 18 kts | 243° |
| 2026-05-06 18:15 | 43.39295 | 132.14574 | 52 ft | 19 kts | 241° |
| 2026-05-06 18:16 | 43.39228 | 132.14407 | 51 ft | 20 kts | 241° |
| 2026-05-06 18:16 | 43.39197 | 132.14316 | 48 ft | 8 kts | 269° |
| 2026-05-06 18:16 | 43.39249 | 132.14249 | 44 ft | 9 kts | 332° |
| 2026-05-06 18:16 | 43.39260 | 132.14241 | 44 ft | 0 kts | 331° |
| 2026-05-06 18:19 | 43.39283 | 132.14224 | 42 ft | 8 kts | 331° |
| 2026-05-06 18:19 | 43.39354 | 132.14180 | 39 ft | 13 kts | 360° |
| 2026-05-06 18:19 | 43.39410 | 132.14256 | 41 ft | 4 kts | 60° |
| 2026-05-06 18:20 | 43.39410 | 132.14258 | 41 ft | 0 kts | 60° |
| 2026-05-06 18:20 | 43.39445 | 132.14345 | 44 ft | 40 kts | 61° |
| 2026-05-06 18:21 | 43.39710 | 132.14992 | 52 ft | 112 kts | 62° |
| 2026-05-06 18:21 | 43.40194 | 132.16173 | 126 ft | 163 kts | 59° |
| 2026-05-06 18:21 | 43.40739 | 132.17584 | 686 ft | 171 kts | 58° |
| 2026-05-06 18:21 | 43.41332 | 132.18991 | 1414 ft | 176 kts | 54° |
| 2026-05-06 18:22 | 43.41957 | 132.20450 | 2202 ft | 182 kts | 56° |
| 2026-05-06 18:22 | 43.42606 | 132.22052 | 2756 ft | 203 kts | 57° |
| 2026-05-06 18:22 | 43.43306 | 132.23798 | 3376 ft | 221 kts | 57° |
| 2026-05-06 18:22 | 43.44073 | 132.25709 | 3994 ft | 239 kts | 57° |
| 2026-05-06 18:23 | 43.44911 | 132.27799 | 4671 ft | 255 kts | 57° |
| 2026-05-06 18:23 | 43.45764 | 132.29935 | 5521 ft | 263 kts | 57° |
| 2026-05-06 18:23 | 43.46657 | 132.32164 | 6360 ft | 271 kts | 56° |
| 2026-05-06 18:23 | 43.47566 | 132.34424 | 7166 ft | 279 kts | 57° |
| 2026-05-06 18:24 | 43.48562 | 132.36734 | 7942 ft | 285 kts | 49° |
| 2026-05-06 18:24 | 43.49963 | 132.38673 | 8684 ft | 288 kts | 31° |
| 2026-05-06 18:24 | 43.51660 | 132.40137 | 9428 ft | 294 kts | 25° |
| 2026-05-06 18:24 | 43.53449 | 132.41527 | 10143 ft | 303 kts | 24° |
| 2026-05-06 18:25 | 43.55332 | 132.42976 | 10652 ft | 319 kts | 24° |
| 2026-05-06 18:25 | 43.57303 | 132.44505 | 11082 ft | 338 kts | 24° |
| 2026-05-06 18:25 | 43.59399 | 132.46150 | 11576 ft | 353 kts | 24° |
| 2026-05-06 18:25 | 43.61544 | 132.47858 | 12279 ft | 360 kts | 24° |
| 2026-05-06 18:26 | 43.63711 | 132.49589 | 13023 ft | 364 kts | 24° |
| 2026-05-06 18:26 | 43.65903 | 132.51341 | 13726 ft | 370 kts | 24° |
| 2026-05-06 18:26 | 43.68147 | 132.53134 | 14409 ft | 375 kts | 24° |
| 2026-05-06 18:26 | 43.70426 | 132.54961 | 15051 ft | 381 kts | 24° |
| 2026-05-06 18:27 | 43.72717 | 132.56798 | 15621 ft | 388 kts | 24° |
| 2026-05-06 18:27 | 43.75076 | 132.58688 | 16241 ft | 394 kts | 23° |
| 2026-05-06 18:27 | 43.77436 | 132.60579 | 16822 ft | 401 kts | 23° |
| 2026-05-06 18:27 | 43.79833 | 132.62617 | 17416 ft | 409 kts | 27° |
| 2026-05-06 18:28 | 43.82138 | 132.64941 | 17985 ft | 417 kts | 33° |
| 2026-05-06 18:28 | 43.84383 | 132.67590 | 18520 ft | 425 kts | 37° |
| 2026-05-06 18:28 | 43.86575 | 132.70317 | 19071 ft | 430 kts | 38° |
| 2026-05-06 18:28 | 43.88815 | 132.73131 | 19608 ft | 435 kts | 38° |
| 2026-05-06 18:29 | 43.91050 | 132.75925 | 20137 ft | 439 kts | 38° |
| 2026-05-06 18:29 | 43.93293 | 132.78719 | 20893 ft | 436 kts | 38° |
| 2026-05-06 18:29 | 43.95543 | 132.81512 | 21509 ft | 437 kts | 38° |
| 2026-05-06 18:29 | 43.97824 | 132.84341 | 22002 ft | 442 kts | 37° |
| 2026-05-06 18:30 | 44.00105 | 132.87161 | 22446 ft | 447 kts | 38° |
| 2026-05-06 18:30 | 44.02437 | 132.90054 | 22893 ft | 453 kts | 38° |
| 2026-05-06 18:30 | 44.04792 | 132.92978 | 23355 ft | 457 kts | 37° |
| 2026-05-06 18:30 | 44.07178 | 132.95941 | 23813 ft | 462 kts | 38° |
| 2026-05-06 18:31 | 44.09589 | 132.98944 | 24263 ft | 466 kts | 37° |
| 2026-05-06 18:31 | 44.12010 | 133.01959 | 24736 ft | 469 kts | 37° |
| 2026-05-06 18:31 | 44.14431 | 133.04964 | 25209 ft | 473 kts | 37° |
| 2026-05-06 18:31 | 44.16896 | 133.08034 | 25694 ft | 476 kts | 37° |
| 2026-05-06 18:32 | 44.19370 | 133.11096 | 26139 ft | 478 kts | 35° |
| 2026-05-06 18:32 | 44.21940 | 133.13974 | 26578 ft | 478 kts | 31° |
| 2026-05-06 18:32 | 44.24611 | 133.16751 | 27003 ft | 480 kts | 30° |
| 2026-05-06 18:32 | 44.27277 | 133.19469 | 27420 ft | 483 kts | 29° |
| 2026-05-06 18:33 | 44.30003 | 133.22246 | 27850 ft | 485 kts | 30° |
| 2026-05-06 18:33 | 44.32715 | 133.25018 | 28235 ft | 489 kts | 30° |
| 2026-05-06 18:33 | 44.35481 | 133.27858 | 28616 ft | 492 kts | 30° |
| 2026-05-06 18:33 | 44.38212 | 133.30681 | 29011 ft | 494 kts | 30° |
| 2026-05-06 18:34 | 44.40977 | 133.33542 | 29406 ft | 497 kts | 29° |
| 2026-05-06 18:34 | 44.43766 | 133.36435 | 29786 ft | 499 kts | 30° |
| 2026-05-06 18:34 | 44.46520 | 133.39293 | 30102 ft | 502 kts | 29° |
| 2026-05-06 18:34 | 44.49353 | 133.42238 | 30479 ft | 504 kts | 30° |
| 2026-05-06 18:35 | 44.52141 | 133.45140 | 30766 ft | 508 kts | 29° |
| 2026-05-06 18:35 | 44.54970 | 133.48088 | 31117 ft | 509 kts | 29° |
| 2026-05-06 18:35 | 44.57811 | 133.51057 | 31595 ft | 508 kts | 28° |
| 2026-05-06 18:35 | 44.60635 | 133.54016 | 32086 ft | 506 kts | 28° |
| 2026-05-06 18:36 | 44.63442 | 133.56959 | 32577 ft | 504 kts | 28° |
| 2026-05-06 18:36 | 44.66222 | 133.59871 | 33011 ft | 503 kts | 28° |
| 2026-05-06 18:36 | 44.69042 | 133.62828 | 33394 ft | 503 kts | 28° |
| 2026-05-06 18:36 | 44.71812 | 133.65738 | 33707 ft | 504 kts | 28° |
| 2026-05-06 18:37 | 44.74639 | 133.68721 | 33979 ft | 506 kts | 28° |
| 2026-05-06 18:37 | 44.76481 | 133.70666 | 34122 ft | 508 kts | 28° |
| 2026-05-06 18:37 | 44.80247 | 133.74652 | 34458 ft | 509 kts | 28° |
| 2026-05-06 18:37 | 44.83084 | 133.77650 | 34713 ft | 509 kts | 28° |
| 2026-05-06 18:38 | 44.85892 | 133.80679 | 34879 ft | 514 kts | 31° |
| 2026-05-06 18:38 | 44.88643 | 133.84003 | 34890 ft | 520 kts | 35° |
| 2026-05-06 18:38 | 44.93615 | 133.91483 | 34936 ft | 536 kts | 46° |
| 2026-05-06 18:39 | 44.95858 | 133.95718 | 35127 ft | 541 kts | 50° |
| 2026-05-06 18:39 | 44.97915 | 134.00150 | 35445 ft | 540 kts | 53° |
| 2026-05-06 18:39 | 44.99905 | 134.04627 | 35759 ft | 539 kts | 53° |
| 2026-05-06 18:40 | 45.03847 | 134.13550 | 36377 ft | 536 kts | 53° |
| 2026-05-06 18:40 | 45.05810 | 134.17955 | 36615 ft | 536 kts | 53° |
| 2026-05-06 18:40 | 45.07807 | 134.22433 | 36856 ft | 535 kts | 53° |
| 2026-05-06 18:40 | 45.09777 | 134.26831 | 37104 ft | 534 kts | 53° |
| 2026-05-06 18:41 | 45.11754 | 134.31230 | 37356 ft | 533 kts | 53° |
| 2026-05-06 18:41 | 45.13734 | 134.35631 | 37589 ft | 531 kts | 53° |
| 2026-05-06 18:41 | 45.15724 | 134.40047 | 37838 ft | 529 kts | 53° |
| 2026-05-06 18:41 | 45.17697 | 134.44452 | 38090 ft | 528 kts | 53° |
| 2026-05-06 18:42 | 45.19644 | 134.48820 | 38346 ft | 526 kts | 53° |
| 2026-05-06 18:42 | 45.21570 | 134.53146 | 38588 ft | 524 kts | 53° |
| 2026-05-06 18:42 | 45.23491 | 134.57472 | 38817 ft | 523 kts | 53° |
| 2026-05-06 18:43 | 45.27378 | 134.66238 | 38841 ft | 530 kts | 54° |
| 2026-05-06 18:43 | 45.31277 | 134.75102 | 38851 ft | 533 kts | 54° |
| 2026-05-06 18:44 | 45.35189 | 134.84019 | 38844 ft | 533 kts | 54° |
| 2026-05-06 18:44 | 45.39120 | 134.92984 | 38848 ft | 533 kts | 54° |
| 2026-05-06 18:45 | 45.43014 | 135.01897 | 38850 ft | 534 kts | 54° |
| 2026-05-06 18:45 | 45.46912 | 135.10840 | 38855 ft | 533 kts | 54° |
| 2026-05-06 18:46 | 45.50809 | 135.19804 | 38870 ft | 534 kts | 54° |
| 2026-05-06 18:46 | 45.54711 | 135.28813 | 38858 ft | 533 kts | 54° |
| 2026-05-06 18:47 | 45.58590 | 135.37796 | 38854 ft | 534 kts | 54° |
| 2026-05-06 18:47 | 45.62448 | 135.46767 | 38869 ft | 534 kts | 54° |
| 2026-05-06 18:48 | 45.66312 | 135.55778 | 38868 ft | 534 kts | 54° |
| 2026-05-06 18:48 | 45.70163 | 135.64775 | 38873 ft | 534 kts | 54° |
| 2026-05-06 18:49 | 45.74004 | 135.73827 | 38860 ft | 534 kts | 55° |
| 2026-05-06 18:49 | 45.77857 | 135.82927 | 38860 ft | 534 kts | 54° |
| 2026-05-06 18:50 | 45.81668 | 135.91922 | 38852 ft | 533 kts | 55° |
| 2026-05-06 18:50 | 45.85527 | 136.01060 | 38865 ft | 535 kts | 55° |
| 2026-05-06 18:51 | 45.89354 | 136.10156 | 38844 ft | 534 kts | 54° |
| 2026-05-06 18:51 | 45.93164 | 136.19246 | 38829 ft | 534 kts | 54° |
| 2026-05-06 18:52 | 45.96954 | 136.28316 | 38819 ft | 532 kts | 54° |
| 2026-05-06 18:52 | 46.00762 | 136.37447 | 38813 ft | 532 kts | 54° |
| 2026-05-06 18:53 | 46.04533 | 136.46509 | 38806 ft | 532 kts | 54° |
| 2026-05-06 18:53 | 46.08293 | 136.55606 | 38806 ft | 530 kts | 54° |
| 2026-05-06 18:54 | 46.12045 | 136.64688 | 38812 ft | 530 kts | 54° |
| 2026-05-06 18:54 | 46.15809 | 136.73791 | 38813 ft | 529 kts | 55° |
| 2026-05-06 18:55 | 46.19529 | 136.82867 | 38782 ft | 528 kts | 55° |
| 2026-05-06 18:55 | 46.23241 | 136.91978 | 38851 ft | 526 kts | 56° |
| 2026-05-06 18:56 | 46.26922 | 137.01019 | 38832 ft | 527 kts | 55° |
| 2026-05-06 18:56 | 46.30623 | 137.10159 | 38849 ft | 526 kts | 56° |
| 2026-05-06 18:57 | 46.34257 | 137.19275 | 38823 ft | 525 kts | 58° |
| 2026-05-06 18:57 | 46.37302 | 137.28871 | 38835 ft | 532 kts | 67° |
| 2026-05-06 18:58 | 46.39482 | 137.39094 | 38818 ft | 539 kts | 73° |
| 2026-05-06 18:58 | 46.41425 | 137.49667 | 38819 ft | 545 kts | 73° |
| 2026-05-06 18:59 | 46.43390 | 137.60233 | 38805 ft | 549 kts | 73° |
| 2026-05-06 18:59 | 46.45382 | 137.70851 | 38798 ft | 552 kts | 74° |
| 2026-05-06 19:00 | 46.47391 | 137.81632 | 38806 ft | 554 kts | 74° |
| 2026-05-06 19:00 | 46.49390 | 137.92392 | 38812 ft | 555 kts | 74° |
| 2026-05-06 19:01 | 46.51373 | 138.03116 | 38799 ft | 555 kts | 74° |
| 2026-05-06 19:01 | 46.53354 | 138.13904 | 38811 ft | 555 kts | 74° |
| 2026-05-06 19:02 | 46.55316 | 138.24690 | 38823 ft | 554 kts | 74° |
| 2026-05-06 19:02 | 46.57260 | 138.35451 | 38816 ft | 554 kts | 74° |
| 2026-05-06 19:03 | 46.59193 | 138.46258 | 38819 ft | 554 kts | 74° |
| 2026-05-06 19:03 | 46.61109 | 138.57019 | 38838 ft | 553 kts | 74° |
| 2026-05-06 19:04 | 46.62776 | 138.67920 | 38828 ft | 553 kts | 81° |
| 2026-05-06 19:04 | 46.63739 | 138.78926 | 38812 ft | 553 kts | 84° |
| 2026-05-06 19:05 | 46.64564 | 138.90001 | 38839 ft | 553 kts | 84° |
| 2026-05-06 19:05 | 46.65418 | 139.01135 | 38829 ft | 554 kts | 83° |
| 2026-05-06 19:06 | 46.66288 | 139.12183 | 38831 ft | 553 kts | 84° |
| 2026-05-06 19:06 | 46.67150 | 139.23271 | 38817 ft | 553 kts | 84° |
| 2026-05-06 19:07 | 46.67995 | 139.34398 | 38811 ft | 554 kts | 83° |
| 2026-05-06 19:07 | 46.68843 | 139.45453 | 38809 ft | 554 kts | 83° |
| 2026-05-06 19:08 | 46.69689 | 139.56567 | 38800 ft | 554 kts | 84° |
| 2026-05-06 19:08 | 46.70516 | 139.67622 | 38798 ft | 553 kts | 84° |
| 2026-05-06 19:09 | 46.71329 | 139.78719 | 38811 ft | 553 kts | 84° |
| 2026-05-06 19:09 | 46.72131 | 139.89810 | 38813 ft | 553 kts | 84° |
| 2026-05-06 19:10 | 46.72927 | 140.00949 | 38810 ft | 552 kts | 84° |
| 2026-05-06 19:10 | 46.73758 | 140.12041 | 38830 ft | 552 kts | 84° |
| 2026-05-06 19:11 | 46.74551 | 140.23149 | 38817 ft | 552 kts | 84° |
| 2026-05-06 19:11 | 46.75299 | 140.34218 | 38810 ft | 552 kts | 84° |
| 2026-05-06 19:12 | 46.76033 | 140.45219 | 38480 ft | 542 kts | 84° |
| 2026-05-06 19:12 | 46.76393 | 140.50655 | 37540 ft | 537 kts | 84° |
| 2026-05-06 19:12 | 46.76745 | 140.56041 | 36281 ft | 540 kts | 84° |
| 2026-05-06 19:12 | 46.77095 | 140.61421 | 35149 ft | 543 kts | 84° |
| 2026-05-06 19:13 | 46.77450 | 140.66899 | 33912 ft | 547 kts | 84° |
| 2026-05-06 19:13 | 46.77811 | 140.72461 | 32656 ft | 557 kts | 85° |
| 2026-05-06 19:13 | 46.78181 | 140.78172 | 31792 ft | 581 kts | 85° |
| 2026-05-06 19:13 | 46.78555 | 140.84088 | 31677 ft | 588 kts | 85° |
| 2026-05-06 19:14 | 46.78916 | 140.89952 | 31650 ft | 581 kts | 85° |
| 2026-05-06 19:14 | 46.79279 | 140.95746 | 31037 ft | 565 kts | 86° |
| 2026-05-06 19:14 | 46.79622 | 141.01276 | 30151 ft | 550 kts | 86° |
| 2026-05-06 19:14 | 46.79962 | 141.06769 | 29069 ft | 539 kts | 86° |
| 2026-05-06 19:15 | 46.80288 | 141.12128 | 27941 ft | 529 kts | 87° |
| 2026-05-06 19:15 | 46.80607 | 141.17377 | 26796 ft | 520 kts | 87° |
| 2026-05-06 19:15 | 46.80915 | 141.22578 | 25646 ft | 512 kts | 87° |
| 2026-05-06 19:15 | 46.81213 | 141.27652 | 24542 ft | 502 kts | 88° |
| 2026-05-06 19:16 | 46.81511 | 141.32622 | 23749 ft | 488 kts | 88° |
| 2026-05-06 19:16 | 46.81795 | 141.37482 | 23313 ft | 474 kts | 87° |
| 2026-05-06 19:16 | 46.82067 | 141.42198 | 22901 ft | 465 kts | 88° |
| 2026-05-06 19:16 | 46.82330 | 141.46820 | 22499 ft | 457 kts | 88° |
| 2026-05-06 19:17 | 46.82595 | 141.51502 | 22106 ft | 455 kts | 88° |
| 2026-05-06 19:17 | 46.82857 | 141.56148 | 21699 ft | 452 kts | 88° |
| 2026-05-06 19:17 | 46.83115 | 141.60701 | 21292 ft | 449 kts | 88° |
| 2026-05-06 19:17 | 46.83366 | 141.65187 | 20893 ft | 447 kts | 89° |
| 2026-05-06 19:18 | 46.83616 | 141.69727 | 20489 ft | 444 kts | 89° |
| 2026-05-06 19:18 | 46.83863 | 141.74179 | 20086 ft | 442 kts | 88° |
| 2026-05-06 19:18 | 46.84244 | 141.78606 | 19681 ft | 441 kts | 78° |
| 2026-05-06 19:18 | 46.85298 | 141.82741 | 19306 ft | 438 kts | 60° |
| 2026-05-06 19:19 | 46.86933 | 141.86430 | 18959 ft | 431 kts | 51° |
| 2026-05-06 19:19 | 46.88698 | 141.89911 | 18590 ft | 427 kts | 50° |
| 2026-05-06 19:19 | 46.90485 | 141.93370 | 18228 ft | 424 kts | 50° |
| 2026-05-06 19:19 | 46.92235 | 141.96817 | 17862 ft | 421 kts | 51° |
| 2026-05-06 19:20 | 46.93950 | 142.00253 | 17503 ft | 418 kts | 51° |
| 2026-05-06 19:20 | 46.95623 | 142.03650 | 17138 ft | 414 kts | 52° |
| 2026-05-06 19:20 | 46.97300 | 142.07080 | 16754 ft | 411 kts | 52° |
| 2026-05-06 19:20 | 46.98931 | 142.10426 | 16399 ft | 408 kts | 51° |
| 2026-05-06 19:21 | 47.00574 | 142.13809 | 16005 ft | 405 kts | 53° |
| 2026-05-06 19:21 | 47.02181 | 142.17117 | 15644 ft | 402 kts | 52° |
| 2026-05-06 19:21 | 47.03799 | 142.20453 | 15266 ft | 399 kts | 51° |
| 2026-05-06 19:21 | 47.05392 | 142.23746 | 14892 ft | 395 kts | 52° |
| 2026-05-06 19:22 | 47.06971 | 142.27014 | 14521 ft | 392 kts | 52° |
| 2026-05-06 19:22 | 47.08517 | 142.30217 | 14138 ft | 388 kts | 51° |
| 2026-05-06 19:22 | 47.10074 | 142.33440 | 13768 ft | 384 kts | 52° |
| 2026-05-06 19:22 | 47.11612 | 142.36618 | 13392 ft | 380 kts | 51° |
| 2026-05-06 19:23 | 47.13145 | 142.39771 | 13019 ft | 376 kts | 51° |
| 2026-05-06 19:23 | 47.14635 | 142.42844 | 12647 ft | 371 kts | 51° |
| 2026-05-06 19:23 | 47.16119 | 142.45927 | 12277 ft | 366 kts | 52° |
| 2026-05-06 19:23 | 47.17565 | 142.48936 | 11918 ft | 361 kts | 52° |
| 2026-05-06 19:24 | 47.18996 | 142.51926 | 11557 ft | 356 kts | 52° |
| 2026-05-06 19:24 | 47.20408 | 142.54880 | 11185 ft | 351 kts | 52° |
| 2026-05-06 19:24 | 47.21793 | 142.57782 | 10800 ft | 347 kts | 52° |
| 2026-05-06 19:24 | 47.23160 | 142.60645 | 10425 ft | 342 kts | 52° |
| 2026-05-06 19:25 | 47.24488 | 142.63530 | 10033 ft | 339 kts | 59° |
| 2026-05-06 19:25 | 47.25095 | 142.66782 | 9844 ft | 328 kts | 91° |
| 2026-05-06 19:25 | 47.24575 | 142.69922 | 9781 ft | 308 kts | 123° |
| 2026-05-06 19:25 | 47.23174 | 142.72144 | 9475 ft | 295 kts | 153° |
| 2026-05-06 19:26 | 47.21288 | 142.73006 | 9161 ft | 282 kts | 180° |
| 2026-05-06 19:26 | 47.19350 | 142.72903 | 8857 ft | 275 kts | 188° |
| 2026-05-06 19:26 | 47.17467 | 142.72705 | 8555 ft | 271 kts | 187° |
| 2026-05-06 19:26 | 47.15591 | 142.72551 | 8257 ft | 268 kts | 185° |
| 2026-05-06 19:27 | 47.13741 | 142.72440 | 7958 ft | 265 kts | 185° |
| 2026-05-06 19:27 | 47.11913 | 142.72360 | 7662 ft | 262 kts | 184° |
| 2026-05-06 19:27 | 47.10104 | 142.72299 | 7372 ft | 259 kts | 184° |
| 2026-05-06 19:27 | 47.08324 | 142.72244 | 7088 ft | 256 kts | 183° |
| 2026-05-06 19:28 | 47.06549 | 142.72194 | 6807 ft | 253 kts | 183° |
| 2026-05-06 19:28 | 47.04795 | 142.72148 | 6526 ft | 251 kts | 183° |
| 2026-05-06 19:28 | 47.03068 | 142.72104 | 6253 ft | 248 kts | 182° |
| 2026-05-06 19:28 | 47.01344 | 142.72063 | 5984 ft | 246 kts | 182° |
| 2026-05-06 19:29 | 46.99653 | 142.72020 | 5718 ft | 243 kts | 182° |
| 2026-05-06 19:29 | 46.97962 | 142.71982 | 5455 ft | 241 kts | 182° |
| 2026-05-06 19:29 | 46.96325 | 142.71942 | 5310 ft | 233 kts | 182° |
| 2026-05-06 19:29 | 46.94758 | 142.72052 | 5290 ft | 220 kts | 167° |
| 2026-05-06 19:30 | 46.93389 | 142.73004 | 5294 ft | 218 kts | 142° |
| 2026-05-06 19:30 | 46.92402 | 142.74675 | 5305 ft | 220 kts | 124° |
| 2026-05-06 19:30 | 46.91597 | 142.76572 | 5301 ft | 222 kts | 122° |
| 2026-05-06 19:30 | 46.90799 | 142.78514 | 5300 ft | 223 kts | 122° |
| 2026-05-06 19:31 | 46.89968 | 142.80402 | 5290 ft | 222 kts | 133° |
| 2026-05-06 19:31 | 46.88759 | 142.81746 | 5282 ft | 218 kts | 160° |
| 2026-05-06 19:31 | 46.85866 | 142.81749 | 5288 ft | 211 kts | 209° |
| 2026-05-06 19:32 | 46.84692 | 142.80550 | 5286 ft | 208 kts | 229° |
| 2026-05-06 19:32 | 46.83931 | 142.78783 | 5285 ft | 206 kts | 252° |
| 2026-05-06 19:32 | 46.83693 | 142.76730 | 5291 ft | 207 kts | 272° |
| 2026-05-06 19:32 | 46.84024 | 142.74667 | 5289 ft | 210 kts | 295° |
| 2026-05-06 19:33 | 46.84876 | 142.72966 | 5282 ft | 212 kts | 317° |
| 2026-05-06 19:33 | 46.86139 | 142.71867 | 5280 ft | 215 kts | 341° |
| 2026-05-06 19:33 | 46.87636 | 142.71513 | 5287 ft | 217 kts | 357° |
| 2026-05-06 19:33 | 46.89138 | 142.71556 | 5286 ft | 218 kts | 1° |
| 2026-05-06 19:34 | 46.90654 | 142.71670 | 5286 ft | 219 kts | 1° |
| 2026-05-06 19:34 | 46.92188 | 142.71770 | 5286 ft | 218 kts | 359° |
| 2026-05-06 19:34 | 46.93704 | 142.71616 | 5283 ft | 217 kts | 348° |
| 2026-05-06 19:34 | 46.95151 | 142.71081 | 5283 ft | 216 kts | 340° |
| 2026-05-06 19:35 | 46.96562 | 142.70344 | 5202 ft | 214 kts | 338° |
| 2026-05-06 19:35 | 46.97924 | 142.69598 | 5127 ft | 204 kts | 338° |
| 2026-05-06 19:35 | 46.99229 | 142.68883 | 4938 ft | 199 kts | 338° |
| 2026-05-06 19:35 | 47.00520 | 142.68176 | 4674 ft | 199 kts | 338° |
| 2026-05-06 19:36 | 47.01809 | 142.67471 | 4439 ft | 197 kts | 338° |
| 2026-05-06 19:36 | 47.03101 | 142.66769 | 4214 ft | 195 kts | 338° |
| 2026-05-06 19:36 | 47.04361 | 142.66087 | 4031 ft | 193 kts | 338° |
| 2026-05-06 19:36 | 47.05621 | 142.65404 | 4000 ft | 195 kts | 338° |
| 2026-05-06 19:37 | 47.06902 | 142.64708 | 3986 ft | 196 kts | 338° |
| 2026-05-06 19:37 | 47.08179 | 142.64015 | 3983 ft | 196 kts | 338° |
| 2026-05-06 19:37 | 47.09465 | 142.63359 | 4008 ft | 193 kts | 347° |
| 2026-05-06 19:37 | 47.10323 | 142.63307 | 4001 ft | 187 kts | 8° |
| 2026-05-06 19:38 | 47.11786 | 142.64594 | 3587 ft | 187 kts | 46° |
| 2026-05-06 19:38 | 47.12579 | 142.66058 | 3321 ft | 183 kts | 69° |
| 2026-05-06 19:38 | 47.12774 | 142.67837 | 3124 ft | 173 kts | 92° |
| 2026-05-06 19:38 | 47.12696 | 142.69554 | 3001 ft | 160 kts | 104° |
| 2026-05-06 19:39 | 47.12248 | 142.70955 | 2991 ft | 149 kts | 135° |
| 2026-05-06 19:39 | 47.11394 | 142.71736 | 3007 ft | 145 kts | 163° |
| 2026-05-06 19:39 | 47.10401 | 142.72058 | 3005 ft | 146 kts | 174° |
| 2026-05-06 19:39 | 47.09396 | 142.72171 | 2999 ft | 146 kts | 179° |
| 2026-05-06 19:40 | 47.08376 | 142.72198 | 3002 ft | 146 kts | 181° |
| 2026-05-06 19:40 | 47.07357 | 142.72195 | 2998 ft | 146 kts | 181° |
| 2026-05-06 19:40 | 47.06347 | 142.72180 | 3020 ft | 146 kts | 181° |
| 2026-05-06 19:40 | 47.05331 | 142.72159 | 3004 ft | 146 kts | 182° |
| 2026-05-06 19:41 | 47.04312 | 142.72136 | 2863 ft | 146 kts | 182° |
| 2026-05-06 19:41 | 47.03310 | 142.72110 | 2666 ft | 144 kts | 182° |
| 2026-05-06 19:41 | 47.02340 | 142.72086 | 2468 ft | 134 kts | 182° |
| 2026-05-06 19:41 | 47.01409 | 142.72063 | 2285 ft | 133 kts | 182° |
| 2026-05-06 19:42 | 47.00495 | 142.72038 | 2111 ft | 132 kts | 182° |
| 2026-05-06 19:42 | 46.99568 | 142.72014 | 1926 ft | 132 kts | 181° |
| 2026-05-06 19:42 | 46.98657 | 142.71991 | 1754 ft | 131 kts | 181° |
| 2026-05-06 19:42 | 46.97749 | 142.71968 | 1578 ft | 131 kts | 181° |
| 2026-05-06 19:43 | 46.96842 | 142.71947 | 1400 ft | 130 kts | 181° |
| 2026-05-06 19:43 | 46.95925 | 142.71924 | 1220 ft | 130 kts | 181° |
| 2026-05-06 19:43 | 46.95030 | 142.71902 | 1045 ft | 130 kts | 181° |
| 2026-05-06 19:43 | 46.94128 | 142.71881 | 866 ft | 129 kts | 181° |
| 2026-05-06 19:44 | 46.93222 | 142.71852 | 694 ft | 129 kts | 182° |
| 2026-05-06 19:44 | 46.92337 | 142.71786 | 520 ft | 129 kts | 183° |
| 2026-05-06 19:44 | 46.91443 | 142.71779 | 337 ft | 128 kts | 181° |
| 2026-05-06 19:44 | 46.90562 | 142.71774 | 151 ft | 126 kts | 180° |
| 2026-05-06 19:45 | 46.89695 | 142.71770 | 45 ft | 115 kts | 181° |
| 2026-05-06 19:45 | 46.89067 | 142.71755 | 48 ft | 65 kts | 181° |
| 2026-05-06 19:45 | 46.88754 | 142.71741 | 49 ft | 22 kts | 181° |
| 2026-05-06 19:45 | 46.88701 | 142.71817 | 52 ft | 10 kts | 91° |
| 2026-05-06 19:46 | 46.88699 | 142.71913 | 55 ft | 9 kts | 92° |
| 2026-05-06 19:46 | 46.88697 | 142.72005 | 56 ft | 8 kts | 92° |
| 2026-05-06 19:46 | 46.88714 | 142.72082 | 58 ft | 8 kts | 37° |
| 2026-05-06 19:46 | 46.88775 | 142.72098 | 58 ft | 9 kts | 1° |
| 2026-05-06 19:47 | 46.88848 | 142.72101 | 59 ft | 10 kts | 1° |
| 2026-05-06 19:47 | 46.88884 | 142.72145 | 59 ft | 7 kts | 84° |
| 2026-05-06 19:47 | 46.88884 | 142.72209 | 62 ft | 5 kts | 91° |
| 2026-05-06 19:47 | 46.88884 | 142.72232 | 62 ft | 0 kts | 91° |